Time;durP1;ratioP1;P1;durP2;ratioP2;P2;SDS_P1;SDS_P2;PMS_P1;PMS_P2;Temp;Humidity;BMP_temperature;BMP_pressure;BME280_temperature;BME280_humidity;BME280_pressure;Samples;Min_cycle;Max_cycle;Signal;HPM_P1;HPM_P2
2022/06/18 00:00:25;;;;;;;4.28;1.73;;;;;;;23.49;60.56;101680.09;5232852;28;20460;-70
2022/06/18 00:02:57;;;;;;;;;;;;;;;24.08;56.49;101681.47;5235517;28;20447;-70
2022/06/18 00:05:29;;;;;;;3.67;2.17;;;;;;;23.42;61.23;101681.88;5234085;28;19908;-70
2022/06/18 00:08:02;;;;;;;5.22;2.25;;;;;;;23.31;62.28;101686.75;5232030;28;20033;-70
2022/06/18 00:10:33;;;;;;;;;;;;;;;23.93;57.79;101674.41;5236412;28;20021;-69
2022/06/18 00:13:40;;;;;;;2.72;1.88;;;;;;;23.44;59.98;101679.84;5235062;28;20299;-70
2022/06/18 00:16:13;;;;;;;6.47;2.42;;;;;;;23.12;63.95;101673.22;5236496;28;20026;-69
2022/06/18 00:18:45;;;;;;;2.90;2.03;;;;;;;23.04;63.13;101677.69;5233605;28;20041;-69
2022/06/18 00:21:25;;;;;;;4.20;2.00;;;;;;;23.03;65.32;101667.16;5218091;28;20492;-69
2022/06/18 00:23:57;;;;;;;6.10;2.40;;;;;;;22.96;65.15;101669.78;5234562;28;20041;-70
2022/06/18 00:26:28;;;;;;;4.03;2.10;;;;;;;22.99;64.99;101671.25;5232550;28;20562;-69
2022/06/18 00:28:59;;;;;;;6.73;2.43;;;;;;;22.91;66.19;101669.53;5234665;28;20023;-70
2022/06/18 00:31:32;;;;;;;3.20;1.90;;;;;;;22.86;65.76;101660.41;5233666;28;20052;-69
2022/06/18 00:34:03;;;;;;;3.67;2.22;;;;;;;22.82;65.79;101660.78;5234044;28;20160;-70
2022/06/18 00:36:37;;;;;;;4.67;2.50;;;;;;;22.80;67.05;101661.97;5234924;28;20645;-69
2022/06/18 00:39:14;;;;;;;6.22;2.50;;;;;;;22.90;66.19;101661.69;5233435;28;20021;-69
2022/06/18 00:41:51;;;;;;;2.88;1.88;;;;;;;22.77;67.38;101663.22;5233871;28;20059;-69
2022/06/18 00:44:31;;;;;;;4.07;2.08;;;;;;;22.80;66.83;101668.16;5231349;28;20041;-69
2022/06/18 00:47:20;;;;;;;4.43;2.38;;;;;;;22.76;65.38;101666.88;5230858;28;20030;-69
2022/06/18 00:49:59;;;;;;;7.72;2.58;;;;;;;22.65;67.32;101663.88;5233431;28;20034;-69
2022/06/18 00:52:41;;;;;;;4.57;2.33;;;;;;;22.68;66.61;101658.16;5232518;28;20071;-69
2022/06/18 00:55:28;;;;;;;3.03;2.03;;;;;;;22.58;68.99;101659.31;5235041;28;20118;-69
2022/06/18 00:58:09;;;;;;;3.55;2.47;;;;;;;22.50;68.07;101651.44;5229972;28;20029;-69
2022/06/18 01:00:44;;;;;;;4.88;2.47;;;;;;;22.42;69.25;101658.72;5228747;28;20029;-69
2022/06/18 01:03:26;;;;;;;4.32;2.20;;;;;;;22.50;68.93;101654.09;5232963;28;20021;-70
2022/06/18 01:06:01;;;;;;;4.57;2.53;;;;;;;22.34;69.12;101656.97;5231955;28;20396;-69
2022/06/18 01:08:33;;;;;;;3.97;2.60;;;;;;;22.25;70.00;101660.78;5235167;28;20033;-70
2022/06/18 01:11:10;;;;;;;3.88;2.17;;;;;;;22.25;70.10;101650.94;5232327;28;20112;-69
2022/06/18 01:13:41;;;;;;;6.93;2.70;;;;;;;22.21;71.02;101647.00;5231852;28;20080;-70
2022/06/18 01:16:13;;;;;;;3.83;2.63;;;;;;;22.21;70.95;101656.84;5228323;28;20038;-69
2022/06/18 01:18:47;;;;;;;3.33;2.70;;;;;;;22.13;70.29;101641.72;5230627;28;20100;-70
2022/06/18 01:22:01;;;;;;;8.80;2.78;;;;;;;22.50;69.17;101640.75;5232666;28;20096;-70
2022/06/18 01:24:38;;;;;;;4.70;2.60;;;;;;;22.20;72.21;101641.81;5125034;29;20051;-70
2022/06/18 01:27:10;;;;;;;5.47;3.03;;;;;;;22.09;72.41;101637.78;5121252;29;20078;-70
2022/06/18 01:29:41;;;;;;;4.18;2.70;;;;;;;22.08;72.70;101639.59;5185030;28;20416;-70
2022/06/18 01:32:16;;;;;;;4.43;2.27;;;;;;;22.05;72.38;101645.34;5230179;28;20029;-70
2022/06/18 01:34:48;;;;;;;5.35;2.83;;;;;;;21.95;73.83;101644.78;5232049;28;20037;-70
2022/06/18 01:37:19;;;;;;;5.75;2.85;;;;;;;21.91;73.52;101642.69;5230256;28;20033;-70
2022/06/18 01:39:51;;;;;;;4.83;2.70;;;;;;;21.85;74.73;101652.22;5231657;28;20499;-69
2022/06/18 01:42:26;;;;;;;6.07;2.83;;;;;;;21.87;74.31;101644.88;5212479;28;20033;-71
2022/06/18 01:45:30;;;;;;;5.90;2.72;;;;;;;21.86;75.09;101645.91;5232667;28;20026;-69
2022/06/18 01:48:14;;;;;;;4.53;2.47;;;;;;;21.83;73.47;101643.59;5228068;28;20045;-70
2022/06/18 01:50:57;;;;;;;3.55;2.80;;;;;;;21.82;75.22;101653.44;5231941;28;20024;-71
2022/06/18 01:53:48;;;;;;;4.22;2.90;;;;;;;21.80;75.99;101643.97;5233115;28;20028;-69
2022/06/18 01:56:25;;;;;;;5.70;3.30;;;;;;;21.65;76.22;101641.28;5231737;28;20018;-70
2022/06/18 01:59:25;;;;;;;5.40;3.03;;;;;;;21.93;74.12;101636.13;5227360;28;20018;-70
2022/06/18 02:01:57;;;;;;;5.63;3.30;;;;;;;21.59;77.03;101642.03;5224793;28;20041;-68
2022/06/18 02:04:30;;;;;;;6.40;3.10;;;;;;;21.59;76.78;101640.22;5231761;28;21045;-68
2022/06/18 02:07:05;;;;;;;7.75;3.55;;;;;;;21.52;77.46;101630.47;5229654;28;20026;-68
2022/06/18 02:09:48;;;;;;;3.83;3.00;;;;;;;21.64;76.99;101636.97;5231831;28;20022;-69
2022/06/18 02:12:24;;;;;;;5.00;2.97;;;;;;;21.47;76.94;101630.97;5230769;28;20091;-68
2022/06/18 02:15:00;;;;;;;6.35;2.85;;;;;;;21.47;78.47;101630.16;5231987;28;20041;-68
2022/06/18 02:17:32;;;;;;;7.57;3.38;;;;;;;21.37;79.97;101631.25;5226561;28;20080;-68
2022/06/18 02:20:12;;;;;;;4.20;3.22;;;;;;;21.52;79.24;101633.13;5210813;28;20045;-69
2022/06/18 02:22:47;;;;;;;4.43;3.33;;;;;;;21.38;79.01;101630.25;5232121;28;20408;-68
2022/06/18 02:25:22;;;;;;;6.43;3.33;;;;;;;21.33;80.09;101623.81;5232169;28;20508;-69
2022/06/18 02:28:24;;;;;;;5.82;3.42;;;;;;;21.59;78.17;101634.03;5231027;28;20029;-68
2022/06/18 02:30:58;;;;;;;5.88;3.25;;;;;;;21.35;78.75;101632.44;5225550;28;20060;-68
2022/06/18 02:33:39;;;;;;;7.25;3.30;;;;;;;21.46;79.07;101628.50;5213642;28;20018;-69
2022/06/18 02:36:15;;;;;;;6.20;3.40;;;;;;;21.33;79.80;101629.16;5233364;28;20044;-68
2022/06/18 02:38:47;;;;;;;4.80;3.45;;;;;;;21.30;80.64;101630.31;5232121;28;20032;-69
2022/06/18 02:41:19;;;;;;;;;;;;;;;21.89;75.03;101629.50;5234493;28;20040;-68
2022/06/18 02:43:51;;;;;;;6.07;3.50;;;;;;;21.31;78.40;101628.47;5230339;28;19917;-69
2022/06/18 02:46:22;;;;;;;8.88;3.55;;;;;;;21.29;79.37;101633.13;5231989;28;20029;-68
2022/06/18 02:48:54;;;;;;;6.77;3.47;;;;;;;21.23;79.58;101632.03;5231375;28;20037;-69
2022/06/18 02:51:25;;;;;;;6.53;3.90;;;;;;;21.26;79.38;101623.69;5233567;28;20033;-68
2022/06/18 02:53:57;;;;;;;8.37;3.83;;;;;;;21.23;79.13;101623.22;5230626;28;20020;-70
2022/06/18 02:56:28;;;;;;;5.70;3.00;;;;;;;21.16;79.17;101624.94;5233420;28;20029;-68
2022/06/18 02:59:00;;;;;;;5.27;3.67;;;;;;;21.16;79.97;101630.28;5228394;28;20072;-68
2022/06/18 03:01:32;;;;;;;4.63;3.80;;;;;;;21.13;80.07;101621.63;5230818;28;20519;-68
2022/06/18 03:04:04;;;;;;;5.33;3.87;;;;;;;21.12;80.05;101630.63;5230159;28;20022;-69
2022/06/18 03:06:35;;;;;;;7.63;3.85;;;;;;;21.11;79.67;101620.97;5229062;28;20037;-68
2022/06/18 03:09:09;;;;;;;5.93;3.70;;;;;;;21.06;80.63;101625.19;5230431;28;20492;-68
2022/06/18 03:14:31;;;;;;;6.45;4.40;;;;;;;21.02;81.06;101624.72;5233013;28;20133;-68
2022/06/18 03:17:02;;;;;;;4.87;3.97;;;;;;;21.02;81.20;101623.88;5228191;28;20034;-68
2022/06/18 03:19:39;;;;;;;6.23;3.97;;;;;;;21.03;81.94;101626.38;5234361;28;20095;-68
2022/06/18 03:22:13;;;;;;;5.97;3.95;;;;;;;21.00;80.79;101632.06;5229752;28;20023;-70
2022/06/18 03:24:45;;;;;;;5.15;3.90;;;;;;;20.92;83.03;101641.97;5231978;28;20029;-69
2022/06/18 03:27:17;;;;;;;7.57;4.60;;;;;;;20.92;84.41;101639.31;5231007;28;20029;-68
2022/06/18 03:29:52;;;;;;;6.97;4.60;;;;;;;20.86;84.90;101636.34;5232073;28;20108;-68
2022/06/18 03:32:23;;;;;;;5.43;3.97;;;;;;;20.84;84.56;101640.19;5233391;28;20063;-69
2022/06/18 03:34:54;;;;;;;6.87;4.57;;;;;;;20.85;83.63;101639.19;5230363;28;20463;-68
2022/06/18 03:37:25;;;;;;;6.43;4.47;;;;;;;20.83;84.49;101636.69;5228026;28;20018;-68
2022/06/18 03:39:57;;;;;;;7.13;4.50;;;;;;;20.80;83.77;101628.25;5233076;28;20030;-69
2022/06/18 03:42:28;;;;;;;5.00;4.20;;;;;;;20.85;84.33;101644.50;5235878;28;20064;-69
2022/06/18 03:44:59;;;;;;;6.90;4.37;;;;;;;20.86;85.05;101640.84;5236053;28;20029;-68
2022/06/18 03:47:30;;;;;;;9.07;4.43;;;;;;;20.84;85.77;101646.34;5235255;28;20810;-69
2022/06/18 03:50:03;;;;;;;6.83;4.33;;;;;;;20.77;83.19;101636.59;5236370;28;20083;-69
2022/06/18 03:52:34;;;;;;;6.78;4.65;;;;;;;20.78;84.81;101644.38;5234796;28;20451;-71
2022/06/18 03:55:06;;;;;;;5.90;4.33;;;;;;;20.77;84.73;101637.41;5229780;28;20029;-69
2022/06/18 03:57:38;;;;;;;7.93;4.13;;;;;;;20.76;84.74;101635.75;5234601;28;20037;-69
2022/06/18 04:00:17;;;;;;;7.87;4.20;;;;;;;20.85;84.92;101641.84;5233518;28;20018;-71
2022/06/18 04:02:48;;;;;;;7.20;4.18;;;;;;;20.70;85.93;101636.47;5232049;28;20110;-70
2022/06/18 04:05:19;;;;;;;7.30;4.43;;;;;;;20.73;87.05;101636.13;5232803;28;20052;-69
2022/06/18 04:07:51;;;;;;;6.13;3.73;;;;;;;20.71;86.03;101632.78;5229773;28;20026;-69
2022/06/18 04:10:22;;;;;;;5.40;4.40;;;;;;;20.77;87.45;101625.94;5232830;28;20029;-69
2022/06/18 04:12:54;;;;;;;5.90;4.37;;;;;;;20.79;84.93;101627.41;5232192;28;20036;-69
2022/06/18 04:15:25;;;;;;;4.97;4.20;;;;;;;20.83;87.17;101618.03;5235031;28;20119;-68
2022/06/18 04:17:56;;;;;;;8.67;4.83;;;;;;;20.82;86.18;101616.38;5232538;28;20107;-68
2022/06/18 04:20:34;;;;;;;11.40;5.10;;;;;;;20.84;86.31;101617.06;5232693;28;20030;-70
2022/06/18 04:23:05;;;;;;;7.07;4.95;;;;;;;20.80;87.34;101615.75;5231752;28;20053;-69
2022/06/18 04:25:37;;;;;;;7.23;4.50;;;;;;;20.90;85.84;101615.50;5230235;28;20029;-70
2022/06/18 04:28:11;;;;;;;9.87;4.80;;;;;;;20.92;85.61;101624.16;5234277;28;20240;-68
2022/06/18 04:30:43;;;;;;;6.15;4.70;;;;;;;20.95;86.35;101623.81;5232820;28;20044;-69
2022/06/18 04:33:15;;;;;;;6.63;4.67;;;;;;;20.94;86.16;101624.78;5231141;28;20479;-70
2022/06/18 04:35:50;;;;;;;6.13;4.97;;;;;;;21.07;85.88;101627.69;5233967;28;20037;-70
2022/06/18 04:38:22;;;;;;;8.80;5.07;;;;;;;20.99;86.51;101619.75;5233031;28;20485;-70
2022/06/18 04:40:54;;;;;;;10.63;4.75;;;;;;;21.06;86.63;101625.19;5229643;28;20033;-70
2022/06/18 04:43:25;;;;;;;8.97;5.13;;;;;;;21.11;86.61;101620.16;5235403;28;20017;-69
2022/06/18 04:45:57;;;;;;;6.17;4.97;;;;;;;21.17;85.94;101621.25;5231506;28;20033;-68
2022/06/18 04:48:28;;;;;;;6.43;5.03;;;;;;;21.16;86.54;101615.09;5232506;28;20550;-68
2022/06/18 04:50:59;;;;;;;10.37;5.27;;;;;;;21.22;85.20;101622.38;5232883;28;20407;-68
2022/06/18 04:53:31;;;;;;;7.03;4.87;;;;;;;21.25;85.12;101624.69;5235439;28;20095;-69
2022/06/18 04:56:02;;;;;;;7.77;4.93;;;;;;;21.31;85.26;101625.78;5231224;28;20017;-69
2022/06/18 04:58:33;;;;;;;6.10;5.03;;;;;;;21.35;84.67;101629.78;5232571;28;20511;-69
2022/06/18 05:01:05;;;;;;;8.43;5.53;;;;;;;21.40;84.90;101629.22;5233669;28;20476;-69
2022/06/18 05:03:36;;;;;;;11.17;5.93;;;;;;;21.42;84.69;101620.03;5232816;28;20040;-69
2022/06/18 05:06:08;;;;;;;6.87;6.00;;;;;;;21.48;83.88;101616.66;5231688;28;20369;-69
2022/06/18 05:08:39;;;;;;;8.07;5.90;;;;;;;21.47;84.02;101616.81;5234831;28;20871;-69
2022/06/18 05:11:10;;;;;;;10.10;6.07;;;;;;;21.55;85.11;101617.56;5233947;28;20028;-69
2022/06/18 05:13:42;;;;;;;6.40;5.67;;;;;;;21.60;84.47;101622.38;5230518;28;20116;-69
2022/06/18 05:16:13;;;;;;;8.53;6.07;;;;;;;21.58;84.95;101611.88;5231307;28;20128;-69
2022/06/18 05:18:46;;;;;;;7.30;5.90;;;;;;;21.70;83.59;101622.91;5215929;28;20501;-70
2022/06/18 05:21:17;;;;;;;10.27;5.80;;;;;;;21.78;83.58;101630.81;5234550;28;20025;-68
2022/06/18 05:23:49;;;;;;;9.80;6.40;;;;;;;21.86;83.99;101632.56;5233996;28;20033;-68
2022/06/18 05:26:20;;;;;;;12.53;6.93;;;;;;;21.91;83.60;101635.50;5226867;28;20022;-69
2022/06/18 05:28:51;;;;;;;7.30;6.10;;;;;;;21.96;82.96;101637.59;5210130;28;20030;-69
2022/06/18 05:31:23;;;;;;;12.07;6.67;;;;;;;22.03;83.70;101641.19;5232392;28;20029;-69
2022/06/18 05:33:54;;;;;;;7.47;5.33;;;;;;;22.10;83.09;101642.09;5233442;28;20469;-69
2022/06/18 05:36:25;;;;;;;9.27;6.23;;;;;;;22.02;83.55;101635.03;5233309;28;20495;-70
2022/06/18 05:38:57;;;;;;;9.60;5.93;;;;;;;22.17;81.83;101642.22;5231009;28;20085;-69
2022/06/18 05:41:30;;;;;;;7.20;5.60;;;;;;;22.23;81.69;101652.94;5235282;28;20111;-69
2022/06/18 05:44:03;;;;;;;10.98;5.97;;;;;;;22.32;81.95;101648.34;5232978;28;20021;-69
2022/06/18 05:46:35;;;;;;;7.68;6.05;;;;;;;22.31;82.96;101642.19;5230048;28;20436;-70
2022/06/18 05:49:06;;;;;;;9.13;6.13;;;;;;;22.46;80.59;101651.97;5232356;28;20025;-69
2022/06/18 05:51:37;;;;;;;10.67;6.30;;;;;;;22.52;79.20;101646.72;5231389;28;20461;-69
2022/06/18 05:54:09;;;;;;;9.37;5.70;;;;;;;22.59;78.34;101644.94;5234121;28;20391;-69
2022/06/18 05:56:40;;;;;;;9.33;5.60;;;;;;;22.69;78.33;101649.13;5233830;28;20442;-69
2022/06/18 05:59:11;;;;;;;6.97;5.17;;;;;;;22.76;76.88;101642.00;5233238;28;20373;-69
2022/06/18 06:01:43;;;;;;;8.70;5.93;;;;;;;22.84;76.55;101639.22;5223836;28;20069;-69
2022/06/18 06:04:16;;;;;;;8.90;5.87;;;;;;;22.92;75.78;101643.63;5223944;28;20045;-68
2022/06/18 06:06:48;;;;;;;17.35;6.70;;;;;;;22.94;76.79;101637.06;5232341;28;20338;-69
2022/06/18 06:12:13;;;;;;;8.18;5.13;;;;;;;23.18;74.91;101632.31;5233841;28;20029;-69
2022/06/18 06:14:44;;;;;;;12.30;5.57;;;;;;;23.22;73.07;101628.25;5233100;28;20029;-69
2022/06/18 06:17:21;;;;;;;12.30;5.53;;;;;;;23.37;71.51;101631.63;5229160;28;20049;-69
2022/06/18 06:20:00;;;;;;;8.77;5.40;;;;;;;23.41;71.53;101627.59;5228893;28;20484;-69
2022/06/18 06:22:31;;;;;;;10.50;5.50;;;;;;;23.48;70.16;101624.94;5232455;28;20033;-69
2022/06/18 06:25:03;;;;;;;8.87;4.70;;;;;;;23.61;68.83;101619.66;5214305;28;20031;-69
2022/06/18 06:27:35;;;;;;;16.05;5.97;;;;;;;23.70;68.25;101626.53;5232110;28;20018;-69
2022/06/18 06:30:11;;;;;;;12.60;5.93;;;;;;;23.82;67.64;101629.47;5232668;28;20052;-69
2022/06/18 06:32:44;;;;;;;11.10;5.97;;;;;;;23.84;67.96;101630.09;5232995;28;20060;-69
2022/06/18 06:35:15;;;;;;;;;;;;;;;24.41;67.33;101631.56;5230995;28;20081;-69
2022/06/18 06:37:47;;;;;;;11.30;5.38;;;;;;;24.04;65.29;101631.00;5230399;28;20102;-69
2022/06/18 06:40:18;;;;;;;11.17;5.17;;;;;;;24.14;66.46;101629.81;5212697;28;20047;-69
2022/06/18 06:42:52;;;;;;;12.00;5.43;;;;;;;24.20;63.82;101629.00;5232231;28;20032;-69
2022/06/18 06:45:29;;;;;;;10.10;5.38;;;;;;;24.25;63.57;101614.00;5232220;28;20037;-69
2022/06/18 06:48:01;;;;;;;9.90;5.28;;;;;;;24.30;65.37;101626.78;5232646;28;20030;-69
2022/06/18 06:50:32;;;;;;;9.50;5.30;;;;;;;24.35;61.13;101624.31;5232040;28;20090;-69
2022/06/18 06:53:03;;;;;;;14.70;5.43;;;;;;;24.60;61.36;101626.47;5228678;28;20029;-69
2022/06/18 06:58:27;;;;;;;11.85;5.53;;;;;;;24.64;63.13;101623.16;5231794;28;20021;-69
2022/06/18 07:00:58;;;;;;;12.13;5.13;;;;;;;24.87;61.35;101630.00;5227336;28;20022;-69
2022/06/18 07:03:32;;;;;;;9.88;5.65;;;;;;;24.88;61.68;101628.94;5233322;28;20029;-69
2022/06/18 07:06:04;;;;;;;9.82;5.43;;;;;;;24.98;62.07;101627.53;5232541;28;20025;-69
2022/06/18 07:08:35;;;;;;;8.57;5.63;;;;;;;25.12;61.26;101633.75;5209417;28;20916;-69
2022/06/18 07:11:07;;;;;;;11.67;5.30;;;;;;;25.20;59.92;101633.53;5231694;28;20026;-69
2022/06/18 07:13:38;;;;;;;12.07;5.43;;;;;;;25.24;60.82;101628.56;5232461;28;20026;-69
2022/06/18 07:16:11;;;;;;;12.67;5.40;;;;;;;25.38;60.37;101626.69;5235214;28;20021;-69
2022/06/18 07:18:43;;;;;;;11.35;5.00;;;;;;;25.43;60.50;101633.06;5234787;28;20046;-69
2022/06/18 07:21:15;;;;;;;8.90;4.80;;;;;;;25.64;60.99;101631.16;5235756;28;20468;-69
2022/06/18 07:23:46;;;;;;;9.05;4.93;;;;;;;25.71;58.89;101637.34;5235011;28;20071;-69
2022/06/18 07:26:20;;;;;;;9.30;4.73;;;;;;;25.85;60.61;101620.19;5232610;28;20489;-69
2022/06/18 07:28:51;;;;;;;9.10;4.28;;;;;;;25.89;58.85;101624.09;5236762;28;20021;-69
2022/06/18 07:31:31;;;;;;;11.57;4.70;;;;;;;26.18;59.68;101621.91;5236070;28;20694;-69
2022/06/18 07:34:06;;;;;;;13.32;4.95;;;;;;;26.22;59.80;101620.44;5234413;28;20036;-69
2022/06/18 07:36:37;;;;;;;10.60;5.40;;;;;;;26.20;57.99;101617.94;5235924;28;20390;-69
2022/06/18 07:39:09;;;;;;;11.00;4.67;;;;;;;26.38;57.46;101608.34;5235447;28;20023;-70
2022/06/18 07:41:45;;;;;;;11.27;5.07;;;;;;;26.56;58.70;101621.91;5229134;28;20040;-69
2022/06/18 07:44:16;;;;;;;8.88;4.93;;;;;;;26.59;57.51;101618.78;5233040;28;20026;-69
2022/06/18 07:46:48;;;;;;;7.77;4.40;;;;;;;26.68;55.26;101620.16;5233785;28;20029;-70
2022/06/18 07:49:19;;;;;;;9.20;4.97;;;;;;;26.70;54.77;101614.56;5234091;28;20423;-70
2022/06/18 07:51:51;;;;;;;8.43;4.90;;;;;;;26.85;56.08;101622.31;5230091;28;20087;-69
2022/06/18 07:54:23;;;;;;;12.27;5.33;;;;;;;27.10;56.89;101622.31;5234613;28;20073;-70
2022/06/18 07:56:54;;;;;;;9.27;4.80;;;;;;;27.17;55.42;101604.28;5234739;28;20111;-70
2022/06/18 07:59:26;;;;;;;9.00;5.40;;;;;;;27.19;52.95;101614.81;5231126;28;20025;-70
2022/06/18 08:01:57;;;;;;;10.30;4.60;;;;;;;27.25;53.68;101609.38;5237078;28;20432;-70
2022/06/18 08:04:29;;;;;;;9.15;4.85;;;;;;;27.39;55.40;101608.19;5233957;28;20025;-70
2022/06/18 08:07:01;;;;;;;8.07;4.50;;;;;;;27.57;53.95;101603.84;5233619;28;20032;-70
2022/06/18 08:09:33;;;;;;;16.25;5.07;;;;;;;27.60;52.49;101598.00;5231331;28;20029;-70
2022/06/18 08:12:05;;;;;;;15.55;5.07;;;;;;;27.57;53.17;101587.69;5235424;28;20021;-70
2022/06/18 08:14:36;;;;;;;12.27;4.32;;;;;;;27.89;53.09;101602.66;5234286;28;20065;-70
2022/06/18 08:17:07;;;;;;;10.53;4.37;;;;;;;28.07;51.49;101595.56;5234408;28;20527;-71
2022/06/18 08:19:39;;;;;;;8.50;5.03;;;;;;;28.03;50.73;101589.81;5233042;28;20159;-70
2022/06/18 08:22:10;;;;;;;9.60;4.90;;;;;;;28.16;53.33;101593.41;5232616;28;20029;-70
2022/06/18 08:24:42;;;;;;;9.97;5.30;;;;;;;28.12;52.66;101593.84;5228537;28;20021;-70
2022/06/18 08:27:14;;;;;;;9.70;4.87;;;;;;;28.41;51.58;101587.88;5213668;28;20102;-71
2022/06/18 08:29:46;;;;;;;;;;;;;;;29.00;50.60;101588.81;5231843;28;20516;-71
2022/06/18 08:32:17;;;;;;;10.87;4.73;;;;;;;28.50;49.88;101581.94;5234603;28;19912;-71
2022/06/18 08:34:48;;;;;;;9.50;5.07;;;;;;;28.54;49.34;101576.91;5232832;28;20029;-71
2022/06/18 08:37:19;;;;;;;10.67;5.13;;;;;;;28.55;49.63;101563.16;5233795;28;20033;-71
2022/06/18 08:39:51;;;;;;;11.03;4.70;;;;;;;28.77;50.71;101582.31;5233049;28;20017;-71
2022/06/18 08:42:46;;;;;;;12.57;4.90;;;;;;;28.98;50.13;101572.88;5229444;28;20029;-71
2022/06/18 08:46:06;;;;;;;10.07;5.32;;;;;;;29.06;50.64;101577.91;5230902;28;20414;-71
2022/06/18 08:49:11;;;;;;;13.85;4.40;;;;;;;29.08;48.91;101581.16;5178252;28;20045;-71
2022/06/18 08:52:04;;;;;;;10.93;4.65;;;;;;;29.28;47.83;101586.22;5230665;28;20501;-71
2022/06/18 08:54:56;;;;;;;13.00;4.55;;;;;;;29.33;50.55;101586.31;5229318;28;20033;-71
2022/06/18 08:57:36;;;;;;;;;;;;;;;30.00;48.74;101587.66;5227034;28;20025;-71
2022/06/18 09:00:40;;;;;;;11.93;4.85;;;;;;;29.52;47.12;101584.28;5231963;28;19921;-70
2022/06/18 09:03:41;;;;;;;12.15;4.30;;;;;;;29.92;47.49;101585.34;5167700;28;20037;-70
2022/06/18 09:07:03;;;;;;;8.38;4.30;;;;;;;30.02;46.21;101589.06;5230756;28;20017;-70
2022/06/18 09:09:34;;;;;;;13.25;4.70;;;;;;;29.67;43.72;101591.09;5180666;28;20077;-70
2022/06/18 09:12:41;;;;;;;12.17;4.40;;;;;;;30.09;45.11;101588.13;5232160;28;20045;-70
2022/06/18 09:15:22;;;;;;;12.15;4.30;;;;;;;30.11;46.25;101596.78;5230880;28;20096;-71
2022/06/18 09:18:07;;;;;;;14.60;5.47;;;;;;;30.05;46.04;101596.72;5229637;28;20057;-71
2022/06/18 09:20:48;;;;;;;12.02;5.53;;;;;;;30.16;47.16;101583.38;5232569;28;20163;-70
2022/06/18 09:23:33;;;;;;;11.55;5.40;;;;;;;30.36;46.17;101591.06;5233069;28;20022;-70
2022/06/18 09:26:10;;;;;;;11.90;5.70;;;;;;;30.13;46.92;101579.28;5230619;28;20825;-70
2022/06/18 09:28:50;;;;;;;12.20;5.15;;;;;;;30.31;45.93;101594.50;5231300;28;20502;-70
2022/06/18 09:31:31;;;;;;;12.82;6.18;;;;;;;30.20;45.89;101581.88;5229395;28;20053;-70
2022/06/18 09:34:29;;;;;;;14.77;5.38;;;;;;;30.65;46.89;101594.50;5229183;28;20037;-70
2022/06/18 09:37:12;;;;;;;17.05;5.53;;;;;;;30.45;44.62;101592.28;5230137;28;20025;-70
2022/06/18 09:39:52;;;;;;;14.93;5.43;;;;;;;30.53;45.79;101583.75;5233849;28;20045;-70
2022/06/18 09:43:02;;;;;;;12.88;5.40;;;;;;;30.59;45.08;101584.69;5230575;28;20105;-71
2022/06/18 09:45:43;;;;;;;11.10;6.38;;;;;;;30.49;44.34;101578.03;5157773;28;20045;-70
2022/06/18 09:48:15;;;;;;;12.90;5.53;;;;;;;30.51;46.75;101577.78;5231048;28;20021;-70
2022/06/18 09:50:51;;;;;;;13.98;5.82;;;;;;;30.75;45.49;101578.47;5232733;28;20025;-70
2022/06/18 09:53:27;;;;;;;13.27;6.32;;;;;;;30.81;43.74;101576.69;5231629;28;20061;-70
2022/06/18 09:56:07;;;;;;;12.00;5.70;;;;;;;31.00;44.19;101569.94;5231309;28;20488;-70
2022/06/18 09:58:49;;;;;;;11.45;5.93;;;;;;;30.86;42.84;101574.03;5232096;28;20108;-70
2022/06/18 10:01:30;;;;;;;11.52;5.80;;;;;;;30.88;42.66;101564.63;5229581;28;20045;-70
2022/06/18 10:06:55;;;;;;;12.25;6.13;;;;;;;31.20;44.85;101561.25;5228153;28;20061;-70
2022/06/18 10:09:57;;;;;;;13.65;5.82;;;;;;;31.72;42.90;101561.66;5228755;28;20040;-70
2022/06/18 10:12:41;;;;;;;14.98;5.50;;;;;;;31.42;42.12;101561.31;5224305;28;20041;-70
2022/06/18 10:15:15;;;;;;;14.05;6.05;;;;;;;31.29;43.56;101558.91;5216227;28;20028;-70
2022/06/18 10:18:08;;;;;;;13.70;5.68;;;;;;;31.27;41.63;101568.13;5228968;28;20580;-71
2022/06/18 10:20:46;;;;;;;15.75;6.10;;;;;;;31.50;40.87;101563.56;5230157;28;20076;-70
2022/06/18 10:23:48;;;;;;;15.45;6.10;;;;;;;31.71;41.55;101553.78;5230299;28;20121;-70
2022/06/18 10:26:37;;;;;;;12.40;5.35;;;;;;;31.78;41.66;101545.44;5229561;28;20040;-69
2022/06/18 10:29:08;;;;;;;12.90;5.68;;;;;;;31.58;42.40;101548.75;5227558;28;20025;-71
2022/06/18 10:31:51;;;;;;;12.83;5.10;;;;;;;31.96;42.01;101545.94;5211654;28;20036;-70
2022/06/18 10:34:31;;;;;;;11.23;4.88;;;;;;;32.20;42.10;101543.75;5228226;28;20022;-71
2022/06/18 10:37:20;;;;;;;12.75;4.97;;;;;;;31.73;40.02;101536.19;5227093;28;20452;-70
2022/06/18 10:40:09;;;;;;;19.08;5.30;;;;;;;31.99;38.93;101544.63;5230303;28;20611;-70
2022/06/18 10:42:58;;;;;;;12.20;5.13;;;;;;;32.17;40.41;101541.53;5229062;28;20428;-70
2022/06/18 10:45:48;;;;;;;12.18;5.05;;;;;;;32.48;39.66;101532.88;5208980;28;20377;-70
2022/06/18 10:48:24;;;;;;;13.75;5.28;;;;;;;32.27;39.37;101532.66;5221517;28;20034;-70
2022/06/18 10:50:58;;;;;;;12.05;5.07;;;;;;;32.47;38.82;101537.47;5211462;28;20040;-70
2022/06/18 10:53:44;;;;;;;8.85;4.82;;;;;;;32.54;38.93;101529.09;5232974;28;20056;-71
2022/06/18 10:56:31;;;;;;;11.38;4.82;;;;;;;32.60;38.89;101523.44;5215946;28;20043;-70
2022/06/18 10:59:03;;;;;;;15.70;5.65;;;;;;;32.21;39.39;101520.97;5231935;28;20388;-70
2022/06/18 11:01:38;;;;;;;;;;;;;;;33.22;38.14;101513.75;5232603;28;20033;-70
2022/06/18 11:04:25;;;;;;;13.05;4.97;;;;;;;32.89;37.57;101515.75;5232621;28;19928;-70
2022/06/18 11:07:03;;;;;;;9.95;4.53;;;;;;;33.03;38.79;101520.72;5233412;28;20042;-70
2022/06/18 11:09:44;;;;;;;8.38;4.15;;;;;;;33.24;38.87;101510.78;5230141;28;20022;-70
2022/06/18 11:12:24;;;;;;;11.57;5.03;;;;;;;32.75;37.00;101502.94;5230664;28;20434;-71
2022/06/18 11:14:56;;;;;;;11.18;5.15;;;;;;;32.89;39.25;101509.53;5228482;28;20030;-71
2022/06/18 11:17:32;;;;;;;11.20;4.72;;;;;;;33.07;37.50;101494.69;5226106;28;20050;-70
2022/06/18 11:20:25;;;;;;;12.07;4.93;;;;;;;33.38;38.16;101496.44;5223054;28;20029;-70
2022/06/18 11:23:12;;;;;;;12.80;5.10;;;;;;;33.15;38.63;101492.31;5228211;28;20029;-70
2022/06/18 11:25:51;;;;;;;8.98;4.63;;;;;;;33.13;38.11;101475.44;5231240;28;20507;-70
2022/06/18 11:28:39;;;;;;;11.90;4.63;;;;;;;33.32;37.12;101469.53;5224416;28;20409;-70
2022/06/18 11:31:22;;;;;;;12.15;5.63;;;;;;;33.55;37.40;101469.06;5231270;28;20540;-70
2022/06/18 11:34:05;;;;;;;14.80;4.60;;;;;;;33.77;37.91;101468.03;5226329;28;20038;-71
2022/06/18 11:36:51;;;;;;;10.30;4.57;;;;;;;34.00;37.00;101464.78;5222957;28;20033;-70
2022/06/18 11:39:38;;;;;;;12.88;4.88;;;;;;;34.21;35.97;101460.16;5230738;28;20022;-70
2022/06/18 11:42:20;;;;;;;8.75;4.30;;;;;;;34.11;35.18;101454.72;5227837;28;20036;-70
2022/06/18 11:45:10;;;;;;;9.43;4.93;;;;;;;34.10;35.80;101445.75;5229092;28;20104;-71
2022/06/18 11:47:50;;;;;;;13.77;5.57;;;;;;;33.99;33.88;101449.56;5227072;28;20076;-70
2022/06/18 11:50:37;;;;;;;13.05;5.60;;;;;;;33.87;35.75;101449.81;5228068;28;20481;-71
2022/06/18 11:53:26;;;;;;;12.90;5.15;;;;;;;34.16;35.81;101445.75;5227633;28;20437;-71
2022/06/18 11:55:58;;;;;;;14.45;4.80;;;;;;;33.89;36.09;101447.63;5227631;28;20437;-71
2022/06/18 11:58:39;;;;;;;14.38;5.03;;;;;;;33.85;36.96;101445.72;5228733;28;20104;-71
2022/06/18 12:01:28;;;;;;;11.15;4.82;;;;;;;34.04;35.79;101437.88;5200142;28;20442;-71
2022/06/18 12:04:17;;;;;;;11.45;4.47;;;;;;;34.12;35.79;101432.69;5228717;28;20030;-71
2022/06/18 12:07:01;;;;;;;10.93;4.95;;;;;;;34.16;34.77;101440.31;5229310;28;20029;-71
2022/06/18 12:09:33;;;;;;;12.55;4.50;;;;;;;33.96;36.52;101436.50;5224703;28;20037;-71
2022/06/18 12:12:24;;;;;;;;;;;;;;;34.76;35.06;101439.38;5230262;28;20040;-71
2022/06/18 12:15:15;;;;;;;17.05;5.43;;;;;;;34.20;36.19;101441.38;5230743;28;19996;-71
2022/06/18 12:18:08;;;;;;;12.27;5.22;;;;;;;34.24;36.03;101437.03;5228927;28;20041;-71
2022/06/18 12:21:06;;;;;;;9.98;4.20;;;;;;;34.26;37.23;101434.88;5230556;28;20100;-71